sensor_id;sensor_type;location;lat;lon;timestamp;temperature;humidity
21403;DHT22;10862;51.886;17.078;2022-11-20T00:01:18;-0.40;99.90
21403;DHT22;10862;51.886;17.078;2022-11-20T00:03:44;-0.40;99.90
21403;DHT22;10862;51.886;17.078;2022-11-20T00:06:12;-0.40;99.90
21403;DHT22;10862;51.886;17.078;2022-11-20T00:08:38;-0.50;99.90
21403;DHT22;10862;51.886;17.078;2022-11-20T00:11:15;-0.40;99.90
21403;DHT22;10862;51.886;17.078;2022-11-20T00:13:41;-0.40;99.90
21403;DHT22;10862;51.886;17.078;2022-11-20T00:16:09;-0.50;99.90
21403;DHT22;10862;51.886;17.078;2022-11-20T00:18:36;-0.40;99.90
21403;DHT22;10862;51.886;17.078;2022-11-20T00:21:07;-0.50;99.90
21403;DHT22;10862;51.886;17.078;2022-11-20T00:23:33;-0.50;99.90
21403;DHT22;10862;51.886;17.078;2022-11-20T00:26:06;-0.50;99.90
21403;DHT22;10862;51.886;17.078;2022-11-20T00:28:32;-0.60;99.90
21403;DHT22;10862;51.886;17.078;2022-11-20T00:31:20;-0.60;99.90
21403;DHT22;10862;51.886;17.078;2022-11-20T00:33:46;-0.60;99.90
21403;DHT22;10862;51.886;17.078;2022-11-20T00:36:18;-0.60;99.90
21403;DHT22;10862;51.886;17.078;2022-11-20T00:38:44;-0.60;99.90
21403;DHT22;10862;51.886;17.078;2022-11-20T00:41:15;-0.60;99.90
21403;DHT22;10862;51.886;17.078;2022-11-20T00:43:41;-0.70;99.90
21403;DHT22;10862;51.886;17.078;2022-11-20T00:46:18;-0.70;99.90
21403;DHT22;10862;51.886;17.078;2022-11-20T00:48:45;-0.60;99.90
21403;DHT22;10862;51.886;17.078;2022-11-20T00:51:15;-0.70;99.90
21403;DHT22;10862;51.886;17.078;2022-11-20T00:53:41;-0.70;99.90
21403;DHT22;10862;51.886;17.078;2022-11-20T00:56:10;-0.70;99.90
21403;DHT22;10862;51.886;17.078;2022-11-20T00:58:38;-0.60;99.90
21403;DHT22;10862;51.886;17.078;2022-11-20T01:01:21;-0.60;99.90
21403;DHT22;10862;51.886;17.078;2022-11-20T01:03:50;-0.70;99.90
21403;DHT22;10862;51.886;17.078;2022-11-20T01:06:18;-0.70;99.90
21403;DHT22;10862;51.886;17.078;2022-11-20T01:08:45;-0.70;99.90
21403;DHT22;10862;51.886;17.078;2022-11-20T01:11:15;-0.70;99.90
21403;DHT22;10862;51.886;17.078;2022-11-20T01:13:42;-0.70;99.90
21403;DHT22;10862;51.886;17.078;2022-11-20T01:18:37;-0.70;99.90
21403;DHT22;10862;51.886;17.078;2022-11-20T01:21:05;-0.70;99.90
21403;DHT22;10862;51.886;17.078;2022-11-20T01:23:33;-0.80;99.90
21403;DHT22;10862;51.886;17.078;2022-11-20T01:26:10;-0.80;99.90
21403;DHT22;10862;51.886;17.078;2022-11-20T01:28:36;-0.90;99.90
21403;DHT22;10862;51.886;17.078;2022-11-20T01:31:01;-0.90;99.90
21403;DHT22;10862;51.886;17.078;2022-11-20T01:33:35;-0.90;99.90
21403;DHT22;10862;51.886;17.078;2022-11-20T01:36:05;-0.90;99.90
21403;DHT22;10862;51.886;17.078;2022-11-20T01:38:31;-0.90;99.90
21403;DHT22;10862;51.886;17.078;2022-11-20T01:40:56;-0.90;99.90
21403;DHT22;10862;51.886;17.078;2022-11-20T01:43:23;-1.00;99.90
21403;DHT22;10862;51.886;17.078;2022-11-20T01:46:05;-1.00;99.90
21403;DHT22;10862;51.886;17.078;2022-11-20T01:48:47;-1.10;99.90
21403;DHT22;10862;51.886;17.078;2022-11-20T01:51:21;-1.00;99.90
21403;DHT22;10862;51.886;17.078;2022-11-20T01:53:50;-1.10;99.90
21403;DHT22;10862;51.886;17.078;2022-11-20T01:56:17;-1.20;99.90
21403;DHT22;10862;51.886;17.078;2022-11-20T01:58:48;-1.10;99.90
21403;DHT22;10862;51.886;17.078;2022-11-20T02:01:15;-1.20;99.90
21403;DHT22;10862;51.886;17.078;2022-11-20T02:03:41;-1.20;99.90
21403;DHT22;10862;51.886;17.078;2022-11-20T02:06:21;-1.30;99.90
21403;DHT22;10862;51.886;17.078;2022-11-20T02:08:48;-1.20;99.90
21403;DHT22;10862;51.886;17.078;2022-11-20T02:11:14;-1.30;99.90
21403;DHT22;10862;51.886;17.078;2022-11-20T02:13:40;-1.30;99.90
21403;DHT22;10862;51.886;17.078;2022-11-20T02:16:27;-1.40;99.90
21403;DHT22;10862;51.886;17.078;2022-11-20T02:18:55;-1.40;99.90
21403;DHT22;10862;51.886;17.078;2022-11-20T02:21:30;-1.40;99.90
21403;DHT22;10862;51.886;17.078;2022-11-20T02:24:09;-1.40;99.90
21403;DHT22;10862;51.886;17.078;2022-11-20T02:27:01;-1.40;99.90
21403;DHT22;10862;51.886;17.078;2022-11-20T02:29:35;-1.30;99.90
21403;DHT22;10862;51.886;17.078;2022-11-20T02:32:02;-1.20;99.90
21403;DHT22;10862;51.886;17.078;2022-11-20T02:34:28;-1.30;99.90
21403;DHT22;10862;51.886;17.078;2022-11-20T02:36:55;-1.30;99.90
21403;DHT22;10862;51.886;17.078;2022-11-20T02:39:24;-1.40;99.90
21403;DHT22;10862;51.886;17.078;2022-11-20T02:41:52;-1.40;99.90
21403;DHT22;10862;51.886;17.078;2022-11-20T02:44:19;-1.40;99.90
21403;DHT22;10862;51.886;17.078;2022-11-20T02:46:45;-1.40;99.90
21403;DHT22;10862;51.886;17.078;2022-11-20T02:49:10;-1.30;99.90
21403;DHT22;10862;51.886;17.078;2022-11-20T02:51:36;-1.30;99.90
21403;DHT22;10862;51.886;17.078;2022-11-20T02:54:01;-1.40;99.90
21403;DHT22;10862;51.886;17.078;2022-11-20T02:56:27;-1.30;99.90
21403;DHT22;10862;51.886;17.078;2022-11-20T02:58:53;-1.30;99.90
21403;DHT22;10862;51.886;17.078;2022-11-20T03:01:18;-1.40;99.90
21403;DHT22;10862;51.886;17.078;2022-11-20T03:03:44;-1.50;99.90
21403;DHT22;10862;51.886;17.078;2022-11-20T03:06:09;-1.60;99.90
21403;DHT22;10862;51.886;17.078;2022-11-20T03:08:35;-1.60;99.90
21403;DHT22;10862;51.886;17.078;2022-11-20T03:11:05;-1.60;99.90
21403;DHT22;10862;51.886;17.078;2022-11-20T03:13:32;-1.70;99.90
21403;DHT22;10862;51.886;17.078;2022-11-20T03:15:57;-1.80;99.90
21403;DHT22;10862;51.886;17.078;2022-11-20T03:18:23;-1.70;99.90
21403;DHT22;10862;51.886;17.078;2022-11-20T03:20:48;-1.70;99.90
21403;DHT22;10862;51.886;17.078;2022-11-20T03:23:14;-1.70;99.90
21403;DHT22;10862;51.886;17.078;2022-11-20T03:25:39;-1.60;99.90
21403;DHT22;10862;51.886;17.078;2022-11-20T03:28:05;-1.60;99.90
21403;DHT22;10862;51.886;17.078;2022-11-20T03:30:30;-1.70;99.90
21403;DHT22;10862;51.886;17.078;2022-11-20T03:32:56;-1.60;99.90
21403;DHT22;10862;51.886;17.078;2022-11-20T03:35:21;-1.60;99.90
21403;DHT22;10862;51.886;17.078;2022-11-20T03:37:47;-1.60;99.90
21403;DHT22;10862;51.886;17.078;2022-11-20T03:40:13;-1.60;99.90
21403;DHT22;10862;51.886;17.078;2022-11-20T03:42:39;-1.60;99.90
21403;DHT22;10862;51.886;17.078;2022-11-20T03:45:11;-1.60;99.90
21403;DHT22;10862;51.886;17.078;2022-11-20T03:47:37;-1.60;99.90
21403;DHT22;10862;51.886;17.078;2022-11-20T03:50:03;-1.70;99.90
21403;DHT22;10862;51.886;17.078;2022-11-20T03:52:29;-1.60;99.90
21403;DHT22;10862;51.886;17.078;2022-11-20T03:54:54;-1.60;99.90
21403;DHT22;10862;51.886;17.078;2022-11-20T03:57:20;-1.60;99.90
21403;DHT22;10862;51.886;17.078;2022-11-20T03:59:45;-1.60;99.90
21403;DHT22;10862;51.886;17.078;2022-11-20T04:02:11;-1.50;99.90
21403;DHT22;10862;51.886;17.078;2022-11-20T04:04:36;-1.50;99.90
21403;DHT22;10862;51.886;17.078;2022-11-20T04:07:03;-1.50;99.90
21403;DHT22;10862;51.886;17.078;2022-11-20T04:09:29;-1.50;99.90
21403;DHT22;10862;51.886;17.078;2022-11-20T04:11:54;-1.50;99.90
21403;DHT22;10862;51.886;17.078;2022-11-20T04:14:20;-1.50;99.90
21403;DHT22;10862;51.886;17.078;2022-11-20T04:16:45;-1.50;99.90
21403;DHT22;10862;51.886;17.078;2022-11-20T04:19:13;-1.50;99.90
21403;DHT22;10862;51.886;17.078;2022-11-20T04:21:39;-1.60;99.90
21403;DHT22;10862;51.886;17.078;2022-11-20T04:24:06;-1.50;99.90
21403;DHT22;10862;51.886;17.078;2022-11-20T04:26:32;-1.60;99.90
21403;DHT22;10862;51.886;17.078;2022-11-20T04:28:59;-1.60;99.90
21403;DHT22;10862;51.886;17.078;2022-11-20T04:31:29;-1.70;99.90
21403;DHT22;10862;51.886;17.078;2022-11-20T04:33:55;-1.60;99.90
21403;DHT22;10862;51.886;17.078;2022-11-20T04:36:25;-1.60;99.90
21403;DHT22;10862;51.886;17.078;2022-11-20T04:38:52;-1.70;99.90
21403;DHT22;10862;51.886;17.078;2022-11-20T04:41:19;-1.60;99.90
21403;DHT22;10862;51.886;17.078;2022-11-20T04:43:50;-1.70;99.90
21403;DHT22;10862;51.886;17.078;2022-11-20T04:46:20;-1.70;99.90
21403;DHT22;10862;51.886;17.078;2022-11-20T04:48:46;-1.70;99.90
21403;DHT22;10862;51.886;17.078;2022-11-20T04:51:12;-1.70;99.90
21403;DHT22;10862;51.886;17.078;2022-11-20T04:53:38;-1.70;99.90
21403;DHT22;10862;51.886;17.078;2022-11-20T04:56:05;-1.80;99.90
21403;DHT22;10862;51.886;17.078;2022-11-20T04:58:31;-1.70;99.90
21403;DHT22;10862;51.886;17.078;2022-11-20T05:01:06;-1.70;99.90
21403;DHT22;10862;51.886;17.078;2022-11-20T05:03:31;-1.70;99.90
21403;DHT22;10862;51.886;17.078;2022-11-20T05:06:00;-1.70;99.90
21403;DHT22;10862;51.886;17.078;2022-11-20T05:08:26;-1.70;99.90
21403;DHT22;10862;51.886;17.078;2022-11-20T05:10:52;-1.70;99.90
21403;DHT22;10862;51.886;17.078;2022-11-20T05:13:17;-1.70;99.90
21403;DHT22;10862;51.886;17.078;2022-11-20T05:15:43;-1.70;99.90
21403;DHT22;10862;51.886;17.078;2022-11-20T05:18:08;-1.70;99.90
21403;DHT22;10862;51.886;17.078;2022-11-20T05:20:34;-1.80;99.90
21403;DHT22;10862;51.886;17.078;2022-11-20T05:23:01;-1.80;99.90
21403;DHT22;10862;51.886;17.078;2022-11-20T05:25:27;-1.80;99.90
21403;DHT22;10862;51.886;17.078;2022-11-20T05:27:53;-1.80;99.90
21403;DHT22;10862;51.886;17.078;2022-11-20T05:30:18;-1.80;99.90
21403;DHT22;10862;51.886;17.078;2022-11-20T05:32:44;-1.70;99.90
21403;DHT22;10862;51.886;17.078;2022-11-20T05:35:09;-1.70;99.90
21403;DHT22;10862;51.886;17.078;2022-11-20T05:37:35;-1.70;99.90
21403;DHT22;10862;51.886;17.078;2022-11-20T05:40:00;-1.70;99.90
21403;DHT22;10862;51.886;17.078;2022-11-20T05:42:26;-1.60;99.90
21403;DHT22;10862;51.886;17.078;2022-11-20T05:45:02;-1.60;99.90
21403;DHT22;10862;51.886;17.078;2022-11-20T05:47:32;-1.60;99.90
21403;DHT22;10862;51.886;17.078;2022-11-20T05:49:59;-1.50;99.90
21403;DHT22;10862;51.886;17.078;2022-11-20T05:52:24;-1.50;99.90
21403;DHT22;10862;51.886;17.078;2022-11-20T05:54:53;-1.50;99.90
21403;DHT22;10862;51.886;17.078;2022-11-20T05:57:18;-1.50;99.90
21403;DHT22;10862;51.886;17.078;2022-11-20T05:59:44;-1.50;99.90
21403;DHT22;10862;51.886;17.078;2022-11-20T06:02:09;-1.50;99.90
21403;DHT22;10862;51.886;17.078;2022-11-20T06:04:35;-1.40;99.90
21403;DHT22;10862;51.886;17.078;2022-11-20T06:07:00;-1.40;99.90
21403;DHT22;10862;51.886;17.078;2022-11-20T06:09:26;-1.40;99.90
21403;DHT22;10862;51.886;17.078;2022-11-20T06:11:52;-1.30;99.90
21403;DHT22;10862;51.886;17.078;2022-11-20T06:14:17;-1.30;99.90
21403;DHT22;10862;51.886;17.078;2022-11-20T06:16:43;-1.40;99.90
21403;DHT22;10862;51.886;17.078;2022-11-20T06:19:08;-1.40;99.90
21403;DHT22;10862;51.886;17.078;2022-11-20T06:21:34;-1.40;99.90
21403;DHT22;10862;51.886;17.078;2022-11-20T06:23:59;-1.40;99.90
21403;DHT22;10862;51.886;17.078;2022-11-20T06:26:26;-1.30;99.90
21403;DHT22;10862;51.886;17.078;2022-11-20T06:28:53;-1.40;99.90
21403;DHT22;10862;51.886;17.078;2022-11-20T06:31:21;-1.40;99.90
21403;DHT22;10862;51.886;17.078;2022-11-20T06:33:47;-1.40;99.90
21403;DHT22;10862;51.886;17.078;2022-11-20T06:36:15;-1.40;99.90
21403;DHT22;10862;51.886;17.078;2022-11-20T06:38:41;-1.40;99.90
21403;DHT22;10862;51.886;17.078;2022-11-20T06:41:11;-1.40;99.90
21403;DHT22;10862;51.886;17.078;2022-11-20T06:43:36;-1.40;99.90
21403;DHT22;10862;51.886;17.078;2022-11-20T06:46:02;-1.40;99.90
21403;DHT22;10862;51.886;17.078;2022-11-20T06:48:28;-1.40;99.90
21403;DHT22;10862;51.886;17.078;2022-11-20T06:50:54;-1.40;99.90
21403;DHT22;10862;51.886;17.078;2022-11-20T06:53:20;-1.40;99.90
21403;DHT22;10862;51.886;17.078;2022-11-20T06:55:47;-1.40;99.90
21403;DHT22;10862;51.886;17.078;2022-11-20T06:58:14;-1.40;99.90
21403;DHT22;10862;51.886;17.078;2022-11-20T07:00:41;-1.40;99.90
21403;DHT22;10862;51.886;17.078;2022-11-20T07:03:09;-1.40;99.90
21403;DHT22;10862;51.886;17.078;2022-11-20T07:05:35;-1.50;99.90
21403;DHT22;10862;51.886;17.078;2022-11-20T07:08:01;-1.50;99.90
21403;DHT22;10862;51.886;17.078;2022-11-20T07:10:27;-1.50;99.90
21403;DHT22;10862;51.886;17.078;2022-11-20T07:12:53;-1.50;99.90
21403;DHT22;10862;51.886;17.078;2022-11-20T07:15:21;-1.50;99.90
21403;DHT22;10862;51.886;17.078;2022-11-20T07:17:47;-1.50;99.90
21403;DHT22;10862;51.886;17.078;2022-11-20T07:20:13;-1.50;99.90
21403;DHT22;10862;51.886;17.078;2022-11-20T07:22:39;-1.60;99.90
21403;DHT22;10862;51.886;17.078;2022-11-20T07:25:05;-1.60;99.90
21403;DHT22;10862;51.886;17.078;2022-11-20T07:27:31;-1.50;99.90
21403;DHT22;10862;51.886;17.078;2022-11-20T07:29:57;-1.50;99.90
21403;DHT22;10862;51.886;17.078;2022-11-20T07:32:23;-1.50;99.90
21403;DHT22;10862;51.886;17.078;2022-11-20T07:34:48;-1.40;99.90
21403;DHT22;10862;51.886;17.078;2022-11-20T07:37:14;-1.40;99.90
21403;DHT22;10862;51.886;17.078;2022-11-20T07:39:40;-1.40;99.90
21403;DHT22;10862;51.886;17.078;2022-11-20T07:42:07;-1.30;99.90
21403;DHT22;10862;51.886;17.078;2022-11-20T07:44:32;-1.20;99.90
21403;DHT22;10862;51.886;17.078;2022-11-20T07:46:58;-1.20;99.90
21403;DHT22;10862;51.886;17.078;2022-11-20T07:49:23;-1.20;99.90
21403;DHT22;10862;51.886;17.078;2022-11-20T07:51:52;-1.00;99.90
21403;DHT22;10862;51.886;17.078;2022-11-20T07:54:19;-1.10;99.90
21403;DHT22;10862;51.886;17.078;2022-11-20T07:56:45;-1.00;99.90
21403;DHT22;10862;51.886;17.078;2022-11-20T07:59:10;-1.10;99.90
21403;DHT22;10862;51.886;17.078;2022-11-20T08:01:37;-1.00;99.90
21403;DHT22;10862;51.886;17.078;2022-11-20T08:04:03;-0.90;99.90
21403;DHT22;10862;51.886;17.078;2022-11-20T08:06:28;-0.90;99.90
21403;DHT22;10862;51.886;17.078;2022-11-20T08:08:54;-0.80;99.90
21403;DHT22;10862;51.886;17.078;2022-11-20T08:11:19;-0.80;99.90
21403;DHT22;10862;51.886;17.078;2022-11-20T08:14:03;-0.80;99.90
21403;DHT22;10862;51.886;17.078;2022-11-20T08:16:48;-0.80;99.90
21403;DHT22;10862;51.886;17.078;2022-11-20T08:19:15;-0.80;99.90
21403;DHT22;10862;51.886;17.078;2022-11-20T08:21:41;-0.70;99.90
21403;DHT22;10862;51.886;17.078;2022-11-20T08:24:07;-0.70;99.90
21403;DHT22;10862;51.886;17.078;2022-11-20T08:26:34;-0.60;99.90
21403;DHT22;10862;51.886;17.078;2022-11-20T08:28:59;-0.40;99.90
21403;DHT22;10862;51.886;17.078;2022-11-20T08:31:26;-0.40;99.90
21403;DHT22;10862;51.886;17.078;2022-11-20T08:33:52;-0.40;99.90
21403;DHT22;10862;51.886;17.078;2022-11-20T08:36:19;-0.50;99.90
21403;DHT22;10862;51.886;17.078;2022-11-20T08:38:53;-0.30;99.90
21403;DHT22;10862;51.886;17.078;2022-11-20T08:41:20;0.20;99.90
21403;DHT22;10862;51.886;17.078;2022-11-20T08:43:58;0.10;99.90
21403;DHT22;10862;51.886;17.078;2022-11-20T08:46:36;0.00;99.90
21403;DHT22;10862;51.886;17.078;2022-11-20T08:49:03;0.60;99.90
21403;DHT22;10862;51.886;17.078;2022-11-20T08:51:29;0.50;99.00
21403;DHT22;10862;51.886;17.078;2022-11-20T08:53:55;0.80;95.00
21403;DHT22;10862;51.886;17.078;2022-11-20T08:56:20;3.00;73.20
21403;DHT22;10862;51.886;17.078;2022-11-20T08:58:46;3.70;45.20
21403;DHT22;10862;51.886;17.078;2022-11-20T09:01:11;3.70;32.90
21403;DHT22;10862;51.886;17.078;2022-11-20T09:03:37;3.00;36.40
21403;DHT22;10862;51.886;17.078;2022-11-20T09:06:05;3.00;33.80
21403;DHT22;10862;51.886;17.078;2022-11-20T09:08:31;2.90;43.70
21403;DHT22;10862;51.886;17.078;2022-11-20T09:10:57;3.70;29.80
21403;DHT22;10862;51.886;17.078;2022-11-20T09:13:24;3.10;32.90
21403;DHT22;10862;51.886;17.078;2022-11-20T09:15:58;2.80;30.70
21403;DHT22;10862;51.886;17.078;2022-11-20T09:18:25;2.80;30.60
21403;DHT22;10862;51.886;17.078;2022-11-20T09:20:51;3.20;26.60
21403;DHT22;10862;51.886;17.078;2022-11-20T09:23:17;3.10;27.90
21403;DHT22;10862;51.886;17.078;2022-11-20T09:25:43;2.70;31.60
21403;DHT22;10862;51.886;17.078;2022-11-20T09:28:09;2.50;34.20
21403;DHT22;10862;51.886;17.078;2022-11-20T09:30:35;1.80;40.10
21403;DHT22;10862;51.886;17.078;2022-11-20T09:33:00;1.80;43.00
21403;DHT22;10862;51.886;17.078;2022-11-20T09:35:26;1.80;47.20
21403;DHT22;10862;51.886;17.078;2022-11-20T09:37:52;1.80;47.40
21403;DHT22;10862;51.886;17.078;2022-11-20T09:40:26;1.70;47.90
21403;DHT22;10862;51.886;17.078;2022-11-20T09:48:32;1.40;57.10
21403;DHT22;10862;51.886;17.078;2022-11-20T09:54:11;1.50;58.80
21403;DHT22;10862;51.886;17.078;2022-11-20T09:56:41;1.50;59.70
21403;DHT22;10862;51.886;17.078;2022-11-20T09:59:31;1.50;61.70
21403;DHT22;10862;51.886;17.078;2022-11-20T10:01:59;1.40;65.10
21403;DHT22;10862;51.886;17.078;2022-11-20T10:04:25;1.50;66.10
21403;DHT22;10862;51.886;17.078;2022-11-20T10:06:53;1.40;65.70
21403;DHT22;10862;51.886;17.078;2022-11-20T10:09:29;1.40;65.80
21403;DHT22;10862;51.886;17.078;2022-11-20T10:12:17;1.40;68.10
21403;DHT22;10862;51.886;17.078;2022-11-20T10:15:10;1.30;65.40
21403;DHT22;10862;51.886;17.078;2022-11-20T10:25:46;1.20;69.10
21403;DHT22;10862;51.886;17.078;2022-11-20T10:28:34;1.10;70.70
21403;DHT22;10862;51.886;17.078;2022-11-20T10:31:10;1.10;74.00
21403;DHT22;10862;51.886;17.078;2022-11-20T10:33:39;1.20;77.90
21403;DHT22;10862;51.886;17.078;2022-11-20T10:36:16;1.20;77.40
21403;DHT22;10862;51.886;17.078;2022-11-20T10:39:03;1.10;77.70
21403;DHT22;10862;51.886;17.078;2022-11-20T10:41:34;1.20;78.50
21403;DHT22;10862;51.886;17.078;2022-11-20T10:44:08;1.20;79.10
21403;DHT22;10862;51.886;17.078;2022-11-20T10:46:42;1.20;76.60
21403;DHT22;10862;51.886;17.078;2022-11-20T10:49:16;1.20;76.60
21403;DHT22;10862;51.886;17.078;2022-11-20T10:51:59;1.20;81.10
21403;DHT22;10862;51.886;17.078;2022-11-20T10:57:46;1.20;81.30
21403;DHT22;10862;51.886;17.078;2022-11-20T11:00:16;1.20;79.80
21403;DHT22;10862;51.886;17.078;2022-11-20T11:02:50;1.10;76.10
21403;DHT22;10862;51.886;17.078;2022-11-20T11:05:25;1.00;77.60
21403;DHT22;10862;51.886;17.078;2022-11-20T11:07:56;1.10;79.10
21403;DHT22;10862;51.886;17.078;2022-11-20T11:10:32;1.10;78.80
21403;DHT22;10862;51.886;17.078;2022-11-20T11:13:01;1.20;79.60
21403;DHT22;10862;51.886;17.078;2022-11-20T11:17:54;1.30;75.30
21403;DHT22;10862;51.886;17.078;2022-11-20T11:20:22;1.20;71.90
21403;DHT22;10862;51.886;17.078;2022-11-20T11:22:54;1.30;69.80
21403;DHT22;10862;51.886;17.078;2022-11-20T11:25:31;1.40;66.10
21403;DHT22;10862;51.886;17.078;2022-11-20T11:28:21;1.50;58.30
21403;DHT22;10862;51.886;17.078;2022-11-20T11:30:47;1.50;57.70
21403;DHT22;10862;51.886;17.078;2022-11-20T11:33:30;1.60;60.60
21403;DHT22;10862;51.886;17.078;2022-11-20T11:35:59;1.70;57.90
21403;DHT22;10862;51.886;17.078;2022-11-20T11:38:32;1.80;59.90
21403;DHT22;10862;51.886;17.078;2022-11-20T11:41:00;1.80;56.90
21403;DHT22;10862;51.886;17.078;2022-11-20T11:43:28;1.80;56.10
21403;DHT22;10862;51.886;17.078;2022-11-20T11:49:16;2.10;53.10
21403;DHT22;10862;51.886;17.078;2022-11-20T11:52:03;2.10;50.70
21403;DHT22;10862;51.886;17.078;2022-11-20T11:54:55;2.30;50.80
21403;DHT22;10862;51.886;17.078;2022-11-20T11:57:46;2.50;50.40
21403;DHT22;10862;51.886;17.078;2022-11-20T12:00:14;2.60;49.50
21403;DHT22;10862;51.886;17.078;2022-11-20T12:05:21;2.70;46.20
21403;DHT22;10862;51.886;17.078;2022-11-20T12:07:59;2.60;46.00
21403;DHT22;10862;51.886;17.078;2022-11-20T12:10:40;2.70;47.70
21403;DHT22;10862;51.886;17.078;2022-11-20T12:13:35;2.60;47.60
21403;DHT22;10862;51.886;17.078;2022-11-20T12:16:03;2.60;47.90
21403;DHT22;10862;51.886;17.078;2022-11-20T12:18:29;2.60;47.00
21403;DHT22;10862;51.886;17.078;2022-11-20T12:29:20;2.70;44.60
21403;DHT22;10862;51.886;17.078;2022-11-20T12:32:06;2.70;44.50
21403;DHT22;10862;51.886;17.078;2022-11-20T12:34:47;2.70;45.70
21403;DHT22;10862;51.886;17.078;2022-11-20T12:37:36;2.70;46.00
21403;DHT22;10862;51.886;17.078;2022-11-20T12:46:18;2.70;28.20
21403;DHT22;10862;51.886;17.078;2022-11-20T13:04:39;2.50;26.20
21403;DHT22;10862;51.886;17.078;2022-11-20T13:07:12;2.50;28.10
21403;DHT22;10862;51.886;17.078;2022-11-20T13:09:47;2.60;27.30
21403;DHT22;10862;51.886;17.078;2022-11-20T13:17:34;2.40;25.60
21403;DHT22;10862;51.886;17.078;2022-11-20T13:20:03;2.30;24.80
21403;DHT22;10862;51.886;17.078;2022-11-20T13:25:28;2.30;26.30
21403;DHT22;10862;51.886;17.078;2022-11-20T13:27:56;2.40;27.40
21403;DHT22;10862;51.886;17.078;2022-11-20T13:30:27;2.30;27.30
21403;DHT22;10862;51.886;17.078;2022-11-20T13:33:22;2.30;28.70
21403;DHT22;10862;51.886;17.078;2022-11-20T13:38:24;2.30;31.20
21403;DHT22;10862;51.886;17.078;2022-11-20T13:40:58;2.30;31.90
21403;DHT22;10862;51.886;17.078;2022-11-20T13:43:37;2.30;30.80
21403;DHT22;10862;51.886;17.078;2022-11-20T13:46:05;2.20;28.60
21403;DHT22;10862;51.886;17.078;2022-11-20T13:48:48;2.20;28.50
21403;DHT22;10862;51.886;17.078;2022-11-20T13:51:40;2.20;27.80
21403;DHT22;10862;51.886;17.078;2022-11-20T13:57:30;2.10;27.20
21403;DHT22;10862;51.886;17.078;2022-11-20T14:00:14;2.10;27.30
21403;DHT22;10862;51.886;17.078;2022-11-20T14:02:41;2.00;27.20
21403;DHT22;10862;51.886;17.078;2022-11-20T14:05:22;2.00;28.70
21403;DHT22;10862;51.886;17.078;2022-11-20T14:07:49;2.00;29.80
21403;DHT22;10862;51.886;17.078;2022-11-20T14:10:27;2.00;32.60
21403;DHT22;10862;51.886;17.078;2022-11-20T14:12:53;1.90;34.30
21403;DHT22;10862;51.886;17.078;2022-11-20T14:15:29;1.90;34.70
21403;DHT22;10862;51.886;17.078;2022-11-20T14:17:55;1.90;35.70
21403;DHT22;10862;51.886;17.078;2022-11-20T14:20:24;1.90;34.50
21403;DHT22;10862;51.886;17.078;2022-11-20T14:22:53;1.80;31.90
21403;DHT22;10862;51.886;17.078;2022-11-20T14:25:23;1.80;32.30
21403;DHT22;10862;51.886;17.078;2022-11-20T14:28:00;1.80;32.50
21403;DHT22;10862;51.886;17.078;2022-11-20T14:30:58;1.80;33.30
21403;DHT22;10862;51.886;17.078;2022-11-20T14:33:25;1.70;33.10
21403;DHT22;10862;51.886;17.078;2022-11-20T14:35:55;1.70;33.90
21403;DHT22;10862;51.886;17.078;2022-11-20T14:38:25;1.70;34.10
21403;DHT22;10862;51.886;17.078;2022-11-20T14:40:52;1.70;34.60
21403;DHT22;10862;51.886;17.078;2022-11-20T14:46:07;1.70;34.60
21403;DHT22;10862;51.886;17.078;2022-11-20T14:48:46;1.60;34.90
21403;DHT22;10862;51.886;17.078;2022-11-20T14:51:25;1.60;35.10
21403;DHT22;10862;51.886;17.078;2022-11-20T14:53:52;1.60;34.00
21403;DHT22;10862;51.886;17.078;2022-11-20T14:56:24;1.60;34.30
21403;DHT22;10862;51.886;17.078;2022-11-20T14:58:56;1.50;34.60
21403;DHT22;10862;51.886;17.078;2022-11-20T15:01:30;1.50;34.60
21403;DHT22;10862;51.886;17.078;2022-11-20T15:04:06;1.50;34.60
21403;DHT22;10862;51.886;17.078;2022-11-20T15:06:33;1.50;36.70
21403;DHT22;10862;51.886;17.078;2022-11-20T15:08:58;1.50;37.60
21403;DHT22;10862;51.886;17.078;2022-11-20T15:11:32;1.40;40.00
21403;DHT22;10862;51.886;17.078;2022-11-20T15:14:03;1.40;42.60
21403;DHT22;10862;51.886;17.078;2022-11-20T15:16:30;1.30;45.30
21403;DHT22;10862;51.886;17.078;2022-11-20T15:18:56;1.30;47.50
21403;DHT22;10862;51.886;17.078;2022-11-20T15:21:22;1.20;49.60
21403;DHT22;10862;51.886;17.078;2022-11-20T15:23:48;1.20;51.90
21403;DHT22;10862;51.886;17.078;2022-11-20T15:26:23;1.10;54.30
21403;DHT22;10862;51.886;17.078;2022-11-20T15:28:50;1.20;56.70
21403;DHT22;10862;51.886;17.078;2022-11-20T15:31:21;1.10;56.80
21403;DHT22;10862;51.886;17.078;2022-11-20T15:33:47;1.10;59.60
21403;DHT22;10862;51.886;17.078;2022-11-20T15:36:13;1.10;60.20
21403;DHT22;10862;51.886;17.078;2022-11-20T15:38:38;1.00;64.20
21403;DHT22;10862;51.886;17.078;2022-11-20T15:41:04;1.00;69.50
21403;DHT22;10862;51.886;17.078;2022-11-20T15:43:30;0.90;72.30
21403;DHT22;10862;51.886;17.078;2022-11-20T15:45:59;0.90;73.80
21403;DHT22;10862;51.886;17.078;2022-11-20T15:48:36;0.80;76.70
21403;DHT22;10862;51.886;17.078;2022-11-20T15:51:29;0.80;77.20
21403;DHT22;10862;51.886;17.078;2022-11-20T15:53:56;0.70;81.00
21403;DHT22;10862;51.886;17.078;2022-11-20T15:56:22;0.70;84.00
21403;DHT22;10862;51.886;17.078;2022-11-20T15:58:48;0.60;86.70
21403;DHT22;10862;51.886;17.078;2022-11-20T16:01:16;0.60;90.50
21403;DHT22;10862;51.886;17.078;2022-11-20T16:03:42;0.60;92.90
21403;DHT22;10862;51.886;17.078;2022-11-20T16:06:08;0.50;95.20
21403;DHT22;10862;51.886;17.078;2022-11-20T16:08:34;0.40;97.70
21403;DHT22;10862;51.886;17.078;2022-11-20T16:10:59;0.40;99.40
21403;DHT22;10862;51.886;17.078;2022-11-20T16:13:25;0.30;99.90
21403;DHT22;10862;51.886;17.078;2022-11-20T16:16:22;0.30;99.90
21403;DHT22;10862;51.886;17.078;2022-11-20T16:18:48;0.30;99.90
21403;DHT22;10862;51.886;17.078;2022-11-20T16:21:14;0.20;99.90
21403;DHT22;10862;51.886;17.078;2022-11-20T16:23:41;0.20;99.90
21403;DHT22;10862;51.886;17.078;2022-11-20T16:26:12;0.20;99.90
21403;DHT22;10862;51.886;17.078;2022-11-20T16:28:38;0.10;99.90
21403;DHT22;10862;51.886;17.078;2022-11-20T16:31:17;0.10;99.90
21403;DHT22;10862;51.886;17.078;2022-11-20T16:33:49;0.10;99.90
21403;DHT22;10862;51.886;17.078;2022-11-20T16:36:15;0.10;99.90
21403;DHT22;10862;51.886;17.078;2022-11-20T16:38:41;0.00;99.90
21403;DHT22;10862;51.886;17.078;2022-11-20T16:41:08;0.00;99.90
21403;DHT22;10862;51.886;17.078;2022-11-20T16:43:54;-0.10;99.90
21403;DHT22;10862;51.886;17.078;2022-11-20T16:46:23;-0.10;99.90
21403;DHT22;10862;51.886;17.078;2022-11-20T16:49:00;-0.10;99.90
21403;DHT22;10862;51.886;17.078;2022-11-20T16:51:27;-0.20;99.90
21403;DHT22;10862;51.886;17.078;2022-11-20T16:53:53;-0.20;99.90
21403;DHT22;10862;51.886;17.078;2022-11-20T16:56:23;-0.30;99.90